Time;durP1;ratioP1;P1;durP2;ratioP2;P2;SDS_P1;SDS_P2;PMS_P1;PMS_P2;Temp;Humidity;BMP_temperature;BMP_pressure;BME280_temperature;BME280_humidity;BME280_pressure;Samples;Min_cycle;Max_cycle;Signal;HPM_P1;HPM_P2
2022/01/14 00:01:46;;;;;;;24.43;10.47;;;;;;;-4.65;92.88;95804.06;4972415;28;20296;-63
2022/01/14 00:04:11;;;;;;;22.90;10.93;;;;;;;-4.43;92.44;95812.97;4972674;28;20214;-63
2022/01/14 00:06:40;;;;;;;23.73;11.47;;;;;;;-4.49;92.09;95803.09;4971980;28;20292;-63
2022/01/14 00:09:09;;;;;;;22.83;11.00;;;;;;;-4.56;92.17;95803.13;4970740;28;20641;-59
2022/01/14 00:11:39;;;;;;;24.13;11.43;;;;;;;-4.59;92.01;95793.25;4972125;28;20679;-62
2022/01/14 00:16:30;;;;;;;21.87;9.90;;;;;;;-4.54;92.44;95797.34;4972165;28;20342;-63
2022/01/14 00:18:57;;;;;;;25.40;10.93;;;;;;;-4.33;92.70;95808.72;4972332;28;20198;-61
2022/01/14 00:21:23;;;;;;;23.67;11.47;;;;;;;-4.36;91.42;95817.03;4972370;28;20230;-60
2022/01/14 00:23:52;;;;;;;21.87;11.13;;;;;;;-4.27;91.16;95811.16;4972312;28;20204;-63
2022/01/14 00:31:59;;;;;;;25.53;11.37;;;;;;;-4.08;92.57;95822.53;5010765;28;20578;-63
2022/01/14 00:34:25;;;;;;;22.53;10.90;;;;;;;-3.93;90.22;95851.38;5009053;28;20172;-63
2022/01/14 00:36:50;;;;;;;24.17;11.80;;;;;;;-4.12;89.31;95860.63;5010415;28;20565;-62
2022/01/14 00:39:16;;;;;;;23.07;10.67;;;;;;;-4.00;89.44;95855.56;5009780;28;20186;-64
2022/01/14 00:41:43;;;;;;;25.53;10.63;;;;;;;-4.05;89.04;95862.25;5009707;28;20610;-62
2022/01/14 00:44:14;;;;;;;21.50;9.60;;;;;;;-3.70;88.91;95862.72;5008788;28;20203;-62
2022/01/14 00:46:42;;;;;;;22.57;11.10;;;;;;;-3.79;88.31;95860.31;5009238;28;20577;-63
2022/01/14 00:49:08;;;;;;;22.57;10.63;;;;;;;-4.06;87.87;95868.03;5009406;28;20197;-63
2022/01/14 00:51:35;;;;;;;28.13;10.77;;;;;;;-3.92;89.14;95846.38;5010551;28;20311;-61
2022/01/14 00:54:02;;;;;;;22.73;10.90;;;;;;;-4.05;88.65;95844.88;5009352;28;20572;-63
2022/01/14 00:56:34;;;;;;;22.13;10.23;;;;;;;-3.98;87.78;95863.81;5010434;28;20208;-61
2022/01/14 00:59:15;;;;;;;25.23;11.90;;;;;;;-3.93;87.55;95869.56;5010879;28;20226;-60
2022/01/14 01:01:45;;;;;;;18.90;10.00;;;;;;;-3.88;87.90;95857.91;5010677;28;20236;-60
2022/01/14 01:04:13;;;;;;;20.07;9.87;;;;;;;-3.68;87.87;95861.06;5009104;28;20182;-63
2022/01/14 01:06:40;;;;;;;22.60;10.43;;;;;;;-3.88;87.52;95860.41;5010663;28;20178;-63
2022/01/14 01:09:10;;;;;;;21.20;11.77;;;;;;;-3.92;87.42;95862.97;5010246;28;20182;-63
2022/01/14 01:11:39;;;;;;;24.80;11.77;;;;;;;-4.00;87.43;95852.28;5009966;28;20670;-62
2022/01/14 01:14:15;;;;;;;25.27;11.23;;;;;;;-3.94;87.69;95828.19;5009654;28;20282;-62
2022/01/14 01:16:41;;;;;;;21.63;10.10;;;;;;;-3.89;86.72;95846.34;5009433;28;20227;-61
2022/01/14 01:19:07;;;;;;;21.57;11.17;;;;;;;-3.88;86.83;95842.22;5009827;28;20183;-63
2022/01/14 01:21:33;;;;;;;20.67;10.17;;;;;;;-3.67;86.77;95845.28;5008478;28;20620;-63
2022/01/14 01:23:59;;;;;;;25.70;10.77;;;;;;;-3.47;86.38;95838.44;5008789;28;20643;-63
2022/01/14 01:26:32;;;;;;;25.03;11.23;;;;;;;-3.52;86.00;95834.38;5010061;28;20267;-62
2022/01/14 01:31:45;;;;;;;24.03;10.30;;;;;;;-3.55;85.59;95826.94;4979740;28;20297;-62
2022/01/14 01:34:17;;;;;;;20.73;9.97;;;;;;;-3.31;85.33;95836.56;5010163;28;20177;-59
2022/01/14 01:36:45;;;;;;;21.10;10.50;;;;;;;-3.31;86.15;95809.25;5010244;28;20200;-60
2022/01/14 01:39:15;;;;;;;23.90;10.67;;;;;;;-3.19;84.65;95853.03;5010009;28;20279;-58
2022/01/14 01:41:45;;;;;;;17.83;9.17;;;;;;;-3.04;83.39;95863.59;5010130;28;20179;-63
2022/01/14 01:44:12;;;;;;;20.43;9.43;;;;;;;-3.25;84.70;95838.19;5008190;28;20188;-59
2022/01/14 01:46:40;;;;;;;22.63;10.30;;;;;;;-3.36;83.52;95842.44;5009182;28;20202;-61
2022/01/14 01:49:07;;;;;;;23.00;10.83;;;;;;;-3.52;83.79;95830.22;5008405;28;20208;-63
2022/01/14 01:51:34;;;;;;;19.80;9.83;;;;;;;-3.31;83.81;95825.84;5008771;28;20200;-63
2022/01/14 01:54:00;;;;;;;23.53;11.23;;;;;;;-3.42;83.71;95834.25;5009693;28;20685;-63
2022/01/14 01:56:26;;;;;;;21.27;10.60;;;;;;;-3.38;84.34;95814.31;5009611;28;20196;-63
2022/01/14 01:58:51;;;;;;;22.17;9.27;;;;;;;-3.41;84.15;95810.19;5010331;28;20601;-62
2022/01/14 02:01:17;;;;;;;21.97;10.40;;;;;;;-3.25;84.19;95808.34;5009511;28;20194;-60
2022/01/14 02:03:44;;;;;;;22.23;10.10;;;;;;;-3.17;83.82;95816.53;5009967;28;20195;-60
2022/01/14 02:06:09;;;;;;;21.90;9.63;;;;;;;-2.99;83.33;95821.25;5009938;28;20565;-59
2022/01/14 02:08:35;;;;;;;22.40;10.33;;;;;;;-2.86;83.36;95812.75;5009935;28;20249;-59
2022/01/14 02:11:01;;;;;;;24.83;10.10;;;;;;;-3.36;82.94;95795.22;5008167;28;20202;-62
2022/01/14 02:13:27;;;;;;;22.83;9.60;;;;;;;-3.25;83.69;95778.53;5009845;28;20697;-62
2022/01/14 02:24:20;;;;;;;20.90;9.50;;;;;;;-2.70;81.40;95801.75;5008145;28;20243;-63
2022/01/14 02:26:52;;;;;;;25.33;10.43;;;;;;;-2.65;81.51;95795.84;5009010;28;20214;-62
2022/01/14 02:29:19;;;;;;;21.83;10.53;;;;;;;-2.77;81.26;95801.00;5009177;28;20181;-63
2022/01/14 02:31:45;;;;;;;21.17;9.57;;;;;;;-2.81;80.92;95803.59;5009208;28;20203;-63
2022/01/14 02:34:11;;;;;;;19.40;9.37;;;;;;;-2.52;80.57;95803.94;5009159;28;20240;-62
2022/01/14 02:36:40;;;;;;;23.30;9.43;;;;;;;-2.63;79.87;95805.78;5009036;28;20196;-63
2022/01/14 02:39:06;;;;;;;23.33;11.23;;;;;;;-2.48;79.77;95819.66;5009020;28;20181;-62
2022/01/14 02:41:35;;;;;;;21.50;9.70;;;;;;;-2.69;79.91;95796.72;5009235;28;20284;-63
2022/01/14 02:44:05;;;;;;;19.27;10.63;;;;;;;-2.68;79.87;95800.06;5009353;28;20187;-62
2022/01/14 02:46:37;;;;;;;18.03;9.47;;;;;;;-2.57;79.50;95810.66;5008072;28;20665;-62
2022/01/14 02:49:03;;;;;;;20.70;10.20;;;;;;;-2.74;80.96;95777.75;5007366;28;20258;-62
2022/01/14 02:51:29;;;;;;;21.70;10.03;;;;;;;-2.63;80.51;95780.91;5008466;28;20260;-61
2022/01/14 02:54:10;;;;;;;18.00;9.30;;;;;;;-2.65;80.67;95778.41;5008397;28;20183;-61
2022/01/14 02:56:37;;;;;;;22.10;10.83;;;;;;;-2.48;78.96;95800.56;5007748;28;20282;-63
2022/01/14 02:59:03;;;;;;;22.10;10.90;;;;;;;-2.45;79.03;95794.72;5008759;28;20564;-61
2022/01/14 03:01:29;;;;;;;22.43;10.63;;;;;;;-2.41;80.58;95761.47;5008418;28;20191;-63
2022/01/14 03:03:57;;;;;;;23.77;9.77;;;;;;;-2.32;78.45;95783.72;5007933;28;20187;-62
2022/01/14 03:06:22;;;;;;;23.93;10.07;;;;;;;-2.31;78.56;95785.34;5006735;28;20222;-62
2022/01/14 03:08:48;;;;;;;16.20;9.73;;;;;;;-2.29;80.22;95747.13;5007229;28;20187;-62
2022/01/14 03:11:28;;;;;;;20.07;10.00;;;;;;;-2.30;79.83;95757.94;5006285;28;20204;-63
2022/01/14 03:13:54;;;;;;;20.23;10.03;;;;;;;-2.28;78.74;95766.19;5009183;28;20182;-62
2022/01/14 03:16:21;;;;;;;22.43;10.10;;;;;;;-2.68;78.20;95772.69;5008497;28;20221;-62
2022/01/14 03:18:50;;;;;;;22.90;9.90;;;;;;;-2.56;79.13;95743.44;5007294;28;20204;-63
2022/01/14 03:21:25;;;;;;;20.67;9.47;;;;;;;-2.75;78.92;95747.06;5008329;28;20293;-64
2022/01/14 03:24:02;;;;;;;19.17;9.40;;;;;;;-2.49;78.20;95770.72;5007483;28;20687;-61
2022/01/14 03:26:27;;;;;;;19.23;9.40;;;;;;;-2.44;78.07;95754.06;5008739;28;20206;-62
2022/01/14 03:28:53;;;;;;;23.67;10.17;;;;;;;-2.45;77.81;95750.75;5008942;28;20723;-62
2022/01/14 03:31:18;;;;;;;22.43;10.00;;;;;;;-2.55;78.90;95714.41;5008893;28;20584;-63
2022/01/14 03:33:44;;;;;;;17.57;9.13;;;;;;;-2.57;79.24;95716.13;5010883;28;20226;-62
2022/01/14 03:36:10;;;;;;;23.33;9.80;;;;;;;-2.73;78.53;95727.97;5011362;28;20656;-62
2022/01/14 03:38:37;;;;;;;19.57;9.40;;;;;;;-2.61;79.38;95715.31;5012283;28;20631;-62
2022/01/14 03:41:03;;;;;;;25.03;11.30;;;;;;;-2.57;80.05;95693.72;5012011;28;20225;-63
2022/01/14 03:43:29;;;;;;;17.27;8.43;;;;;;;-2.57;77.88;95733.53;5012424;28;20179;-63
2022/01/14 03:45:55;;;;;;;18.90;8.93;;;;;;;-2.47;78.30;95711.78;5011518;28;20252;-62
2022/01/14 03:48:20;;;;;;;19.23;10.63;;;;;;;-2.41;78.33;95715.00;5010616;28;20191;-61
2022/01/14 03:50:46;;;;;;;22.83;10.27;;;;;;;-2.37;77.02;95740.66;5010389;28;20291;-59
2022/01/14 03:53:12;;;;;;;19.83;9.00;;;;;;;-2.57;78.53;95714.44;5011890;28;20681;-62
2022/01/14 03:55:43;;;;;;;17.80;8.70;;;;;;;-2.72;78.30;95711.38;5011588;28;20205;-62
2022/01/14 03:58:09;;;;;;;16.40;8.40;;;;;;;-2.52;77.70;95716.03;5011924;28;20658;-62
2022/01/14 04:00:36;;;;;;;18.27;9.77;;;;;;;-2.41;78.76;95704.22;5010114;28;20198;-64
2022/01/14 04:03:03;;;;;;;20.03;9.13;;;;;;;-2.42;78.44;95707.56;5009798;28;20235;-63
2022/01/14 04:05:29;;;;;;;19.20;9.17;;;;;;;-2.40;77.80;95745.69;5011637;28;20568;-62
2022/01/14 04:07:54;;;;;;;17.77;8.63;;;;;;;-2.46;77.65;95735.84;5011595;28;20734;-62
2022/01/14 04:10:21;;;;;;;17.57;8.57;;;;;;;-2.50;76.46;95766.59;5011207;28;20217;-63
2022/01/14 04:12:51;;;;;;;21.47;9.93;;;;;;;-2.58;78.53;95704.50;5011681;28;20684;-63
2022/01/14 04:15:37;;;;;;;23.13;9.17;;;;;;;-2.51;78.62;95701.06;5011305;28;20198;-60
2022/01/14 04:18:15;;;;;;;18.03;8.50;;;;;;;-2.71;76.98;95718.81;5011849;28;20209;-62
2022/01/14 04:20:43;;;;;;;21.07;9.77;;;;;;;-2.58;78.36;95682.94;5011094;28;20207;-62
2022/01/14 04:23:11;;;;;;;18.70;9.40;;;;;;;-2.74;76.27;95731.31;5009927;28;20187;-62
2022/01/14 04:25:38;;;;;;;19.97;9.07;;;;;;;-2.91;77.13;95710.06;4980194;23;20303;-62
2022/01/14 04:28:05;;;;;;;15.73;8.23;;;;;;;-2.88;77.02;95707.50;4971946;28;20195;-62
2022/01/14 04:30:31;;;;;;;18.77;9.53;;;;;;;-2.77;76.05;95718.13;4971978;28;20642;-63
2022/01/14 04:32:58;;;;;;;22.27;8.47;;;;;;;-2.69;76.58;95727.06;4969958;28;20753;-63
2022/01/14 04:35:25;;;;;;;15.03;7.80;;;;;;;-2.77;76.99;95705.69;4971607;28;20224;-62
2022/01/14 04:37:50;;;;;;;19.13;8.37;;;;;;;-2.72;77.38;95706.41;4972185;28;20246;-62
2022/01/14 04:40:18;;;;;;;17.40;8.10;;;;;;;-2.67;77.61;95692.25;4971661;28;20203;-63
2022/01/14 04:42:44;;;;;;;22.20;8.67;;;;;;;-2.60;77.29;95697.06;4971418;28;20184;-60
2022/01/14 04:45:26;;;;;;;17.57;8.80;;;;;;;-2.39;76.52;95717.44;4971695;28;20587;-62
2022/01/14 04:47:51;;;;;;;20.57;9.47;;;;;;;-2.61;76.29;95715.31;4971669;28;20217;-63
2022/01/14 04:50:19;;;;;;;21.60;9.47;;;;;;;-2.51;75.63;95733.44;4970411;28;20216;-64
2022/01/14 04:52:46;;;;;;;17.77;9.50;;;;;;;-2.39;73.99;95752.28;4971721;28;20311;-64
2022/01/14 04:55:15;;;;;;;15.20;8.10;;;;;;;-2.61;74.67;95732.75;4971168;28;20223;-64
2022/01/14 04:57:41;;;;;;;18.13;9.40;;;;;;;-1.11;100.00;95575.94;4970365;28;20283;-60
2022/01/14 05:00:10;;;;;;;20.17;9.83;;;;;;;1.49;100.00;95558.88;4970153;28;20625;-62
2022/01/14 05:02:37;;;;;;;19.03;9.80;;;;;;;1.80;100.00;95567.81;4972030;28;20191;-62
2022/01/14 05:05:04;;;;;;;19.93;10.23;;;;;;;0.75;100.00;95699.00;4971410;28;20215;-64
2022/01/14 05:07:29;;;;;;;17.97;10.13;;;;;;;0.31;90.97;95756.16;4971505;28;20184;-64
2022/01/14 05:12:34;;;;;;;20.73;10.00;;;;;;;-0.32;83.35;95711.19;4971703;28;20231;-63
2022/01/14 05:15:00;;;;;;;18.17;9.03;;;;;;;-0.33;78.80;95757.84;4971938;28;20748;-62
2022/01/14 05:17:26;;;;;;;21.00;9.33;;;;;;;-0.61;79.82;95741.06;4971461;28;20289;-62
2022/01/14 05:19:51;;;;;;;19.10;9.73;;;;;;;-0.77;81.99;95645.78;4969895;28;20218;-63
2022/01/14 05:22:18;;;;;;;17.23;8.60;;;;;;;-0.78;79.69;95688.25;4971406;28;20186;-64
2022/01/14 05:24:44;;;;;;;20.37;10.00;;;;;;;-0.75;80.63;95668.22;4971343;28;20215;-62
2022/01/14 05:27:10;;;;;;;19.93;10.20;;;;;;;-0.84;78.49;95681.72;4970105;28;20187;-64
2022/01/14 05:29:36;;;;;;;21.20;9.83;;;;;;;-0.90;76.08;95701.84;4972014;28;20225;-64
2022/01/14 05:32:03;;;;;;;14.77;10.03;;;;;;;-1.11;77.52;95669.94;4971434;28;20705;-63
2022/01/14 05:34:34;;;;;;;22.93;10.13;;;;;;;-1.18;81.50;95609.38;4970084;28;20197;-65
2022/01/14 05:37:01;;;;;;;20.23;9.23;;;;;;;-1.09;78.30;95666.53;4970130;28;20195;-63
2022/01/14 05:39:27;;;;;;;19.70;9.97;;;;;;;-1.45;76.75;95691.47;4971476;28;20192;-62
2022/01/14 05:41:53;;;;;;;19.73;9.60;;;;;;;-1.76;78.77;95643.97;4970546;28;20636;-64
2022/01/14 05:44:19;;;;;;;23.13;9.90;;;;;;;-1.61;80.06;95622.88;4978842;23;20264;-64
2022/01/14 05:46:45;;;;;;;22.30;10.37;;;;;;;-1.62;79.76;95618.75;4972022;28;20175;-66
2022/01/14 05:49:12;;;;;;;20.30;10.27;;;;;;;-1.60;81.11;95597.09;4979344;23;20308;-63
2022/01/14 05:51:37;;;;;;;20.47;9.40;;;;;;;-1.60;79.35;95632.00;4971027;28;20208;-63
2022/01/14 05:54:04;;;;;;;19.00;9.40;;;;;;;-2.01;77.50;95647.81;4971655;28;20195;-65
2022/01/14 05:56:33;;;;;;;25.93;9.97;;;;;;;-2.19;79.45;95618.31;4970878;28;20575;-63
2022/01/14 05:58:59;;;;;;;20.27;9.23;;;;;;;-2.02;80.49;95599.66;4972469;28;20686;-65
2022/01/14 06:01:32;;;;;;;21.73;9.50;;;;;;;-1.76;86.29;95550.09;4970887;28;20210;-67
2022/01/14 06:04:00;;;;;;;18.90;8.33;;;;;;;-1.50;84.04;95571.94;4970327;28;20197;-64
2022/01/14 06:06:29;;;;;;;20.57;9.83;;;;;;;-1.37;81.53;95582.41;4978194;23;20233;-64
2022/01/14 06:08:54;;;;;;;16.30;8.67;;;;;;;-0.98;81.21;95601.41;4970094;28;20554;-62
2022/01/14 06:11:20;;;;;;;19.80;9.70;;;;;;;-0.90;78.87;95646.94;4970632;28;20198;-67
2022/01/14 06:13:46;;;;;;;23.10;8.47;;;;;;;-1.08;78.42;95639.91;4970755;28;20710;-65
2022/01/14 06:16:11;;;;;;;19.03;8.30;;;;;;;-1.07;78.52;95626.59;4970681;28;20258;-64
2022/01/14 06:18:37;;;;;;;17.77;8.63;;;;;;;-0.99;77.34;95657.97;4970193;28;20252;-63
2022/01/14 06:21:04;;;;;;;19.60;9.83;;;;;;;-0.48;100.00;95528.50;4978218;23;20319;-61
2022/01/14 06:23:36;;;;;;;18.37;9.57;;;;;;;2.11;100.00;95523.16;4970652;28;20264;-62
2022/01/14 06:26:03;;;;;;;19.83;10.50;;;;;;;3.51;100.00;95529.09;4969226;28;20596;-65
2022/01/14 06:28:28;;;;;;;15.80;8.40;;;;;;;1.69;100.00;95656.72;4970590;28;20611;-63
2022/01/14 06:31:00;;;;;;;17.40;9.50;;;;;;;0.44;92.07;95714.94;4971519;28;20211;-65
2022/01/14 06:33:26;;;;;;;19.90;9.73;;;;;;;-0.09;94.41;95642.28;4980277;23;20258;-64
2022/01/14 06:35:52;;;;;;;17.93;9.70;;;;;;;0.01;91.40;95695.31;4991273;23;20227;-64
2022/01/14 06:38:21;;;;;;;21.43;9.83;;;;;;;-0.11;93.56;95638.19;4969745;28;20188;-63
2022/01/14 06:40:50;;;;;;;17.93;9.53;;;;;;;-0.39;92.96;95630.63;4970013;28;20294;-64
2022/01/14 06:43:16;;;;;;;17.37;9.73;;;;;;;-0.31;94.39;95613.78;4970599;28;20180;-63
2022/01/14 06:45:42;;;;;;;20.50;10.00;;;;;;;-0.39;91.61;95662.28;4985710;23;20705;-67
2022/01/14 06:48:08;;;;;;;15.27;8.57;;;;;;;-0.79;94.94;95591.78;4969351;28;20175;-63
2022/01/14 06:50:34;;;;;;;18.23;8.70;;;;;;;-0.72;96.84;95580.75;4968521;28;20222;-62
2022/01/14 06:52:59;;;;;;;20.07;9.43;;;;;;;-0.85;98.39;95563.63;4970063;28;20243;-63
2022/01/14 06:55:25;;;;;;;18.63;9.77;;;;;;;-0.92;100.00;95533.88;4970673;28;20208;-65
2022/01/14 06:57:51;;;;;;;14.40;8.13;;;;;;;-0.92;97.65;95568.81;4968968;28;20184;-62
2022/01/14 07:00:19;;;;;;;21.40;9.33;;;;;;;-0.83;98.37;95553.63;4969041;28;20276;-61
2022/01/14 07:02:44;;;;;;;16.67;8.73;;;;;;;-1.30;99.93;95516.59;4968929;28;20180;-61
2022/01/14 07:05:11;;;;;;;18.23;9.17;;;;;;;-1.16;100.00;95500.44;4969074;28;20241;-64
2022/01/14 07:07:37;;;;;;;18.43;8.13;;;;;;;-1.04;100.00;95504.28;4969050;28;20194;-62
2022/01/14 07:10:04;;;;;;;17.57;8.53;;;;;;;-0.88;100.00;95530.44;4970259;28;20362;-67
2022/01/14 07:12:36;;;;;;;17.07;8.13;;;;;;;-0.84;100.00;95527.00;4970402;28;20738;-63
2022/01/14 07:15:08;;;;;;;17.97;8.80;;;;;;;-0.85;100.00;95493.75;4984965;23;20235;-62
2022/01/14 07:17:34;;;;;;;18.90;7.53;;;;;;;-0.75;100.00;95491.84;4970396;28;20176;-62
2022/01/14 07:20:06;;;;;;;21.73;9.77;;;;;;;-0.89;100.00;95494.69;4978143;23;20248;-64
2022/01/14 07:22:31;;;;;;;14.43;7.33;;;;;;;-0.64;100.00;95467.38;4968045;28;20176;-65
2022/01/14 07:24:58;;;;;;;16.07;7.87;;;;;;;-0.63;100.00;95500.66;4969457;28;20210;-68
2022/01/14 07:27:24;;;;;;;14.97;8.30;;;;;;;-0.60;100.00;95493.88;4970135;28;20266;-62
2022/01/14 07:29:50;;;;;;;14.57;8.30;;;;;;;-0.29;100.00;95489.66;4977619;23;20231;-63
2022/01/14 07:32:16;;;;;;;16.37;7.87;;;;;;;-0.21;100.00;95517.72;4970486;28;20595;-64
2022/01/14 07:34:42;;;;;;;14.17;7.87;;;;;;;-0.14;100.00;95534.16;4970506;28;20613;-68
2022/01/14 07:37:08;;;;;;;15.47;7.47;;;;;;;-0.13;100.00;95505.00;4969915;28;20192;-66
2022/01/14 07:39:35;;;;;;;15.13;7.13;;;;;;;-0.06;100.00;95489.78;4977775;23;20238;-65
2022/01/14 07:42:01;;;;;;;13.60;7.27;;;;;;;-0.18;100.00;95510.13;4970007;28;20713;-66
2022/01/14 07:44:27;;;;;;;16.40;7.63;;;;;;;-0.05;100.00;95480.59;4969920;28;20195;-63
2022/01/14 07:46:52;;;;;;;18.30;8.13;;;;;;;-0.09;100.00;95489.88;4969096;28;20677;-66
2022/01/14 07:49:17;;;;;;;14.60;8.57;;;;;;;0.06;100.00;95515.28;4969980;28;20282;-66
2022/01/14 07:51:44;;;;;;;19.17;8.93;;;;;;;0.11;100.00;95478.44;4969511;28;20175;-63
2022/01/14 07:54:09;;;;;;;14.73;8.60;;;;;;;0.20;100.00;95478.16;4970838;28;20195;-63
2022/01/14 07:56:38;;;;;;;18.87;8.73;;;;;;;0.36;100.00;95504.31;4953965;28;20201;-67
2022/01/14 07:59:05;;;;;;;16.17;8.30;;;;;;;0.27;100.00;95504.59;4970476;28;20188;-67
2022/01/14 08:01:33;;;;;;;18.03;9.37;;;;;;;0.22;100.00;95504.75;4968000;28;20681;-64
2022/01/14 08:04:00;;;;;;;19.93;8.73;;;;;;;0.20;100.00;95485.66;4969319;28;20209;-62
2022/01/14 08:06:27;;;;;;;23.73;9.43;;;;;;;0.12;100.00;95485.09;4969509;28;20294;-62
2022/01/14 08:08:52;;;;;;;16.63;8.90;;;;;;;0.14;99.77;95518.34;4969564;28;20208;-64
2022/01/14 08:11:18;;;;;;;18.53;9.07;;;;;;;0.17;100.00;95496.56;4969910;28;20211;-66
2022/01/14 08:13:43;;;;;;;20.80;10.30;;;;;;;0.19;100.00;95479.03;4969157;28;20203;-67
2022/01/14 08:16:08;;;;;;;21.07;9.13;;;;;;;0.26;100.00;95466.31;4969402;28;20221;-61
2022/01/14 08:18:34;;;;;;;16.63;9.23;;;;;;;0.44;100.00;95484.88;4971352;28;20555;-66
2022/01/14 08:20:59;;;;;;;17.70;9.63;;;;;;;0.49;100.00;95473.03;4973168;28;20214;-61
2022/01/14 08:23:25;;;;;;;20.37;10.47;;;;;;;0.52;100.00;95482.97;4971246;28;20194;-65
2022/01/14 08:25:53;;;;;;;18.43;9.60;;;;;;;0.43;100.00;95450.72;4972919;28;20216;-61
2022/01/14 08:28:20;;;;;;;24.70;9.87;;;;;;;0.26;100.00;95452.97;4972396;28;20188;-61
2022/01/14 08:30:46;;;;;;;24.33;9.57;;;;;;;0.36;100.00;95424.31;4972736;28;20215;-66
2022/01/14 08:33:12;;;;;;;22.90;10.50;;;;;;;0.37;100.00;95446.75;4971917;28;20710;-65
2022/01/14 08:35:38;;;;;;;17.97;9.43;;;;;;;0.36;100.00;95439.31;4970790;28;20215;-62
2022/01/14 08:38:04;;;;;;;20.47;9.17;;;;;;;0.47;100.00;95437.25;4972264;28;20210;-62
2022/01/14 08:40:30;;;;;;;17.50;9.60;;;;;;;0.49;100.00;95438.84;4972420;28;20338;-62
2022/01/14 08:42:55;;;;;;;18.57;9.70;;;;;;;0.56;100.00;95419.47;4970678;28;20191;-64
2022/01/14 08:45:21;;;;;;;21.33;10.57;;;;;;;0.82;100.00;95454.41;4972256;28;20243;-62
2022/01/14 08:47:52;;;;;;;23.07;10.20;;;;;;;0.75;100.00;95458.81;4971748;28;20179;-61
2022/01/14 08:50:19;;;;;;;23.17;10.50;;;;;;;0.79;100.00;95449.50;4972468;28;20684;-66
2022/01/14 08:52:45;;;;;;;21.97;10.83;;;;;;;0.77;100.00;95439.56;4971829;28;20221;-63
2022/01/14 08:55:10;;;;;;;23.53;10.17;;;;;;;0.83;100.00;95419.31;4970568;28;20222;-61
2022/01/14 08:57:36;;;;;;;22.63;11.00;;;;;;;0.95;100.00;95422.28;4970353;28;20234;-62
2022/01/14 09:00:01;;;;;;;25.63;11.27;;;;;;;0.93;100.00;95437.31;4971606;28;20203;-65
2022/01/14 09:02:27;;;;;;;21.50;9.80;;;;;;;0.95;100.00;95409.75;4971841;28;20202;-65
2022/01/14 09:04:53;;;;;;;18.33;9.40;;;;;;;1.01;100.00;95390.31;4970592;28;20333;-65
2022/01/14 09:07:18;;;;;;;18.90;9.70;;;;;;;1.05;100.00;95401.06;4970467;28;20187;-66
2022/01/14 09:09:44;;;;;;;21.37;9.63;;;;;;;1.17;100.00;95403.91;4971458;28;20570;-67
2022/01/14 09:12:14;;;;;;;17.20;9.23;;;;;;;1.32;100.00;95392.53;4971757;28;20265;-60
2022/01/14 09:14:39;;;;;;;20.03;9.60;;;;;;;1.08;100.00;95385.91;4970604;28;20222;-62
2022/01/14 09:17:05;;;;;;;17.63;8.27;;;;;;;1.24;100.00;95381.97;4971163;28;20184;-62
2022/01/14 09:19:30;;;;;;;25.60;9.77;;;;;;;1.20;100.00;95370.44;4971443;28;20195;-61
2022/01/14 09:21:56;;;;;;;16.73;8.50;;;;;;;1.36;100.00;95357.28;4971360;28;20198;-68
2022/01/14 09:24:21;;;;;;;19.20;8.33;;;;;;;1.24;100.00;95357.75;4970293;28;20192;-62
2022/01/14 09:26:46;;;;;;;13.73;6.70;;;;;;;1.40;100.00;95351.31;4971531;28;20549;-59
2022/01/14 09:29:12;;;;;;;11.80;6.10;;;;;;;1.19;100.00;95322.06;4970766;28;20192;-64
2022/01/14 09:31:37;;;;;;;11.53;5.20;;;;;;;1.05;100.00;95313.44;4969269;28;20216;-63
2022/01/14 09:34:03;;;;;;;10.13;4.63;;;;;;;1.05;100.00;95308.44;4971277;28;20257;-62
2022/01/14 09:36:29;;;;;;;5.43;3.17;;;;;;;0.85;100.00;95307.50;4971456;28;20208;-63
2022/01/14 09:38:56;;;;;;;7.47;4.30;;;;;;;0.84;100.00;95320.88;4971219;28;20212;-63
2022/01/14 09:41:22;;;;;;;6.93;3.97;;;;;;;0.84;100.00;95307.53;4978971;23;20235;-64
2022/01/14 09:43:47;;;;;;;10.43;4.40;;;;;;;0.85;100.00;95320.00;4971268;28;20241;-62
2022/01/14 09:46:13;;;;;;;6.47;3.63;;;;;;;0.98;100.00;95330.38;4971048;28;20208;-62
2022/01/14 09:48:39;;;;;;;7.57;3.90;;;;;;;1.02;100.00;95321.88;4971075;28;20187;-60
2022/01/14 09:51:06;;;;;;;9.07;4.60;;;;;;;1.09;100.00;95303.25;4969860;28;20207;-63
2022/01/14 09:53:32;;;;;;;7.10;3.90;;;;;;;1.11;100.00;95306.50;4971005;28;20206;-62
2022/01/14 09:55:58;;;;;;;8.57;4.10;;;;;;;1.14;100.00;95308.09;4971315;28;20211;-62
2022/01/14 09:58:27;;;;;;;5.20;3.50;;;;;;;1.03;100.00;95290.16;4971132;28;20188;-63
2022/01/14 10:01:08;;;;;;;5.93;3.53;;;;;;;1.19;100.00;95287.00;4969722;28;20220;-63
2022/01/14 10:03:34;;;;;;;5.33;3.30;;;;;;;1.21;100.00;95281.97;4969226;28;20183;-60
2022/01/14 10:05:59;;;;;;;7.10;3.50;;;;;;;1.33;100.00;95268.97;4969221;28;20330;-63
2022/01/14 10:08:28;;;;;;;7.13;4.40;;;;;;;1.52;100.00;95294.91;4971298;28;20190;-60
2022/01/14 10:10:58;;;;;;;7.43;4.13;;;;;;;1.52;100.00;95275.69;4970608;28;20321;-62
2022/01/14 10:13:29;;;;;;;5.30;4.00;;;;;;;1.60;100.00;95276.19;4970815;28;20234;-61
2022/01/14 10:16:03;;;;;;;6.20;4.20;;;;;;;1.65;100.00;95281.84;4971266;28;20575;-64
2022/01/14 10:18:30;;;;;;;9.23;4.70;;;;;;;1.81;100.00;95281.22;4970781;28;20191;-66
2022/01/14 10:21:01;;;;;;;8.17;4.27;;;;;;;2.08;100.00;95305.16;4970628;28;20697;-65
2022/01/14 10:23:41;;;;;;;6.50;3.33;;;;;;;2.44;100.00;95299.38;4970830;28;20192;-62
2022/01/14 10:26:07;;;;;;;6.23;3.97;;;;;;;2.52;100.00;95312.41;4969054;28;20350;-61
2022/01/14 10:28:34;;;;;;;6.07;4.17;;;;;;;2.49;100.00;95284.97;4970313;28;20686;-61
2022/01/14 10:31:01;;;;;;;8.10;4.20;;;;;;;2.65;100.00;95287.59;4970702;28;20210;-60
2022/01/14 10:33:29;;;;;;;7.57;3.97;;;;;;;2.90;100.00;95317.47;4970446;28;20212;-59
2022/01/14 10:35:54;;;;;;;8.97;4.73;;;;;;;2.70;100.00;95302.47;4970669;28;20579;-60
2022/01/14 10:38:22;;;;;;;6.47;3.83;;;;;;;2.44;100.00;95276.81;4968843;28;20190;-64
2022/01/14 10:40:58;;;;;;;6.53;3.50;;;;;;;2.23;100.00;95249.34;4970012;28;20682;-61
2022/01/14 10:43:32;;;;;;;5.77;3.50;;;;;;;2.36;100.00;95255.47;4970151;28;20265;-61
2022/01/14 10:45:58;;;;;;;7.10;3.30;;;;;;;2.59;100.00;95280.34;4970657;28;20216;-61
2022/01/14 10:48:52;;;;;;;5.80;3.60;;;;;;;2.81;100.00;95282.75;4970087;28;20263;-60
2022/01/14 10:51:18;;;;;;;7.87;3.77;;;;;;;3.10;100.00;95289.75;4968294;28;20212;-60
2022/01/14 10:53:53;;;;;;;7.80;3.93;;;;;;;3.10;100.00;95278.03;4969909;28;20240;-60
2022/01/14 10:56:21;;;;;;;7.63;3.70;;;;;;;3.08;100.00;95281.47;4968600;28;20562;-61
2022/01/14 10:58:49;;;;;;;6.67;3.77;;;;;;;3.01;100.00;95272.63;4969905;28;20259;-60
2022/01/14 11:01:21;;;;;;;4.37;3.20;;;;;;;3.14;100.00;95282.03;4969964;28;20249;-62
2022/01/14 11:03:52;;;;;;;7.37;3.40;;;;;;;3.40;100.00;95279.13;4969924;28;20240;-63
2022/01/14 11:06:23;;;;;;;6.97;3.90;;;;;;;3.38;99.61;95297.66;4968680;28;20260;-61
2022/01/14 11:09:03;;;;;;;5.53;3.40;;;;;;;3.58;99.48;95291.69;4969847;28;20187;-61
2022/01/14 11:11:31;;;;;;;5.87;3.77;;;;;;;3.70;98.26;95286.91;4969895;28;20283;-62
2022/01/14 11:13:56;;;;;;;6.30;4.10;;;;;;;3.95;97.62;95291.56;4970038;28;20246;-62
2022/01/14 11:16:22;;;;;;;6.80;3.60;;;;;;;4.07;97.53;95260.78;4968549;28;20733;-60
2022/01/14 11:18:48;;;;;;;7.63;4.37;;;;;;;3.99;97.29;95276.25;4969758;28;20214;-63
2022/01/14 11:23:59;;;;;;;7.27;3.70;;;;;;;4.28;96.44;95269.78;4970002;28;20191;-61
2022/01/14 11:26:31;;;;;;;6.80;3.67;;;;;;;4.47;95.95;95235.22;4969652;28;20211;-61
2022/01/14 11:29:04;;;;;;;9.37;4.40;;;;;;;4.30;95.00;95270.50;4968386;28;20668;-62
2022/01/14 11:31:35;;;;;;;5.57;3.00;;;;;;;4.17;94.82;95245.16;4969742;28;20238;-61
2022/01/14 11:34:03;;;;;;;6.10;3.63;;;;;;;4.33;94.51;95245.19;4969676;28;20219;-62
2022/01/14 11:36:56;;;;;;;7.00;4.53;;;;;;;4.62;93.96;95272.19;4969645;28;20208;-61
2022/01/14 11:39:31;;;;;;;7.73;3.63;;;;;;;4.65;93.83;95264.47;4969586;28;20623;-61
2022/01/14 11:41:59;;;;;;;6.00;3.53;;;;;;;4.63;92.29;95272.97;4969620;28;20271;-61
2022/01/14 11:44:44;;;;;;;5.43;3.80;;;;;;;4.58;92.57;95242.22;4968373;28;20257;-62
2022/01/14 11:47:44;;;;;;;5.87;3.67;;;;;;;4.50;93.41;95221.66;4968169;28;20601;-64
2022/01/14 11:50:18;;;;;;;6.33;3.23;;;;;;;4.58;93.14;95214.53;5003427;28;20227;-62
2022/01/14 11:52:44;;;;;;;6.10;3.03;;;;;;;4.60;92.64;95226.16;4969731;28;20198;-61